YHEC weather

Heck Field Airport
Queensland, Australia

Public forecast

Using degrees Celsius for public forecast. Weather courtesy of forecast.io.

METAR (pilot weather report)

Closest report is Gold Coast Airport, 25.4 nm (47.0 km) SSE. Retrieved 2019/02/18 06:30 UTC (22 minutes ago):

YBCG 180630Z AUTO 11012KT 9999 // NCD 28/19 Q1009 RF00.0/000.0

TAF (pilot weather forecast)

Closest forecast is Gold Coast Airport, 25.4 nm (47.0 km) SSE. Retrieved 2019/02/18 06:00 UTC (52 minutes ago):

TAF YBCG 180523Z 1806/1906 10014KT 9999 FEW045 FM180900 11008KT 9999 SCT030 FM181200 20005KT 9999 SCT030 FM182300 14010KT 9999 SCT040 FM190000 05010KT 9999 FEW040